Time;durP1;ratioP1;P1;durP2;ratioP2;P2;SDS_P1;SDS_P2;PMS_P1;PMS_P2;Temp;Humidity;BMP_temperature;BMP_pressure;BME280_temperature;BME280_humidity;BME280_pressure;Samples;Min_cycle;Max_cycle;Signal;HPM_P1;HPM_P2
2021/03/05 00:00:14;;;;;;;8.45;3.67;;;8.80;59.20;;;;;;2117785;28;20031;-59
2021/03/05 00:01:35;;;;;;;6.93;3.50;;;8.80;59.10;;;;;;2124683;27;20015;-59
2021/03/05 00:02:56;;;;;;;7.75;3.58;;;8.80;59.00;;;;;;2129795;27;20403;-60
2021/03/05 00:04:17;;;;;;;6.07;3.60;;;8.80;58.90;;;;;;2123859;27;20024;-59
2021/03/05 00:05:40;;;;;;;6.35;3.65;;;8.80;58.80;;;;;;2127023;27;20457;-59
2021/03/05 00:07:01;;;;;;;9.48;3.80;;;8.80;58.80;;;;;;2122181;28;20764;-59
2021/03/05 00:08:22;;;;;;;8.32;3.90;;;8.80;58.80;;;;;;2119429;28;20043;-60
2021/03/05 00:09:43;;;;;;;6.85;3.50;;;8.80;58.60;;;;;;2118697;28;20027;-60
2021/03/05 00:11:04;;;;;;;10.82;4.00;;;8.80;58.60;;;;;;2125661;27;20035;-59
2021/03/05 00:12:25;;;;;;;7.68;3.83;;;8.80;58.50;;;;;;2130497;27;20114;-59
2021/03/05 00:13:46;;;;;;;10.10;4.03;;;8.80;58.50;;;;;;2127293;27;20023;-59
2021/03/05 00:15:11;;;;;;;4.80;3.10;;;8.80;58.50;;;;;;2126237;27;20472;-60
2021/03/05 00:16:32;;;;;;;8.07;3.80;;;8.80;58.40;;;;;;2126340;27;20584;-59
2021/03/05 00:17:53;;;;;;;8.27;4.00;;;8.80;58.30;;;;;;2131878;27;20031;-60
2021/03/05 00:19:14;;;;;;;11.85;3.80;;;8.80;58.30;;;;;;2124247;27;20031;-59
2021/03/05 00:20:38;;;;;;;12.68;4.72;;;8.80;58.30;;;;;;2130982;27;20023;-60
2021/03/05 00:21:58;;;;;;;7.35;3.58;;;8.80;58.30;;;;;;2126964;27;20034;-60
2021/03/05 00:23:20;;;;;;;11.63;4.22;;;8.80;58.30;;;;;;2122645;27;20034;-59
2021/03/05 00:24:41;;;;;;;7.10;3.65;;;8.80;58.30;;;;;;2118654;27;20107;-59
2021/03/05 00:26:02;;;;;;;6.75;3.55;;;8.80;58.20;;;;;;2123122;27;20488;-60
2021/03/05 00:27:23;;;;;;;9.82;4.13;;;8.80;58.20;;;;;;2119796;27;20043;-60
2021/03/05 00:28:44;;;;;;;9.60;4.35;;;8.80;58.20;;;;;;2128777;27;20113;-60
2021/03/05 00:30:06;;;;;;;8.52;4.15;;;8.70;58.10;;;;;;2131560;27;20038;-59
2021/03/05 00:31:27;;;;;;;6.05;3.30;;;8.70;58.10;;;;;;2127804;27;20015;-58
2021/03/05 00:32:48;;;;;;;9.23;3.88;;;8.70;58.10;;;;;;2127129;27;20591;-59
2021/03/05 00:34:09;;;;;;;11.73;4.53;;;8.70;58.70;;;;;;2130880;27;20056;-60
2021/03/05 00:35:30;;;;;;;10.90;3.83;;;8.70;58.20;;;;;;2127233;27;20023;-60
2021/03/05 00:36:51;;;;;;;12.40;5.05;;;8.70;58.30;;;;;;2131148;27;20027;-60
2021/03/05 00:38:12;;;;;;;11.88;4.20;;;8.70;58.30;;;;;;2128850;27;20037;-60
2021/03/05 00:39:33;;;;;;;8.93;4.20;;;8.70;58.30;;;;;;2127843;27;20062;-60
2021/03/05 00:40:54;;;;;;;11.70;4.03;;;8.60;58.40;;;;;;2123166;27;20679;-59
2021/03/05 00:42:15;;;;;;;9.73;3.85;;;8.60;58.50;;;;;;2121676;27;20038;-60
2021/03/05 00:43:36;;;;;;;7.00;4.07;;;8.70;58.50;;;;;;2128437;27;20023;-59
2021/03/05 00:44:57;;;;;;;12.93;4.18;;;8.60;58.50;;;;;;2131378;27;20042;-59
2021/03/05 00:46:18;;;;;;;9.75;3.47;;;8.60;58.50;;;;;;2122002;27;20023;-60
2021/03/05 00:47:39;;;;;;;9.32;3.72;;;8.60;58.50;;;;;;2122527;27;20537;-60
2021/03/05 00:49:00;;;;;;;10.52;4.05;;;8.60;58.50;;;;;;2126782;27;20034;-60
2021/03/05 00:50:21;;;;;;;8.88;4.05;;;8.60;58.40;;;;;;2125940;27;20031;-59
2021/03/05 00:51:42;;;;;;;9.38;4.38;;;8.60;58.40;;;;;;2127548;27;20023;-59
2021/03/05 00:53:03;;;;;;;11.98;3.97;;;8.60;58.40;;;;;;2130688;27;20140;-59
2021/03/05 00:54:24;;;;;;;9.35;3.92;;;8.60;58.30;;;;;;2126461;27;20125;-59
2021/03/05 00:55:45;;;;;;;6.70;3.78;;;8.60;58.30;;;;;;2129476;27;20035;-59
2021/03/05 00:57:06;;;;;;;9.60;4.05;;;8.60;58.30;;;;;;2123985;27;20137;-59
2021/03/05 00:58:27;;;;;;;10.60;4.20;;;8.60;58.20;;;;;;2129538;27;20084;-59
2021/03/05 00:59:48;;;;;;;13.60;3.88;;;8.60;58.30;;;;;;2128898;27;20077;-58
2021/03/05 01:01:09;;;;;;;8.43;3.75;;;8.60;58.20;;;;;;2123823;27;20408;-60
2021/03/05 01:02:29;;;;;;;7.60;3.78;;;8.60;58.20;;;;;;2128144;27;21036;-59
2021/03/05 01:03:50;;;;;;;12.50;4.25;;;8.60;58.20;;;;;;2126338;27;20026;-58
2021/03/05 01:05:11;;;;;;;9.00;3.58;;;8.60;58.20;;;;;;2124132;27;20034;-60
2021/03/05 01:06:32;;;;;;;10.13;4.25;;;8.60;58.30;;;;;;2127688;27;20238;-59
2021/03/05 01:07:53;;;;;;;9.98;3.55;;;8.50;58.30;;;;;;2129768;27;20497;-59
2021/03/05 01:09:14;;;;;;;7.82;3.88;;;8.50;58.20;;;;;;2124294;27;20106;-60
2021/03/05 01:13:19;;;;;;;10.32;3.80;;;8.50;58.40;;;;;;1900160;26;20045;-60
2021/03/05 01:14:40;;;;;;;12.13;4.30;;;8.50;58.50;;;;;;2059818;28;20031;-61
2021/03/05 01:16:01;;;;;;;8.52;4.00;;;8.50;58.40;;;;;;2071222;28;20838;-60
2021/03/05 01:17:22;;;;;;;6.88;3.78;;;8.50;58.50;;;;;;2069278;28;20464;-58
2021/03/05 01:18:43;;;;;;;11.85;4.05;;;8.50;58.50;;;;;;2069471;28;20036;-61
2021/03/05 01:20:14;;;;;;;11.63;4.28;;;8.50;58.50;;;;;;2065825;28;20030;-60
2021/03/05 01:21:35;;;;;;;11.95;4.60;;;8.50;58.40;;;;;;2071741;28;20018;-61
2021/03/05 01:22:56;;;;;;;9.88;4.38;;;8.50;58.30;;;;;;2065090;28;20038;-60
2021/03/05 01:24:17;;;;;;;8.25;3.72;;;8.50;58.30;;;;;;2067248;28;20023;-60
2021/03/05 01:25:38;;;;;;;11.23;4.63;;;8.50;58.30;;;;;;2069793;28;20019;-59
2021/03/05 01:26:59;;;;;;;10.93;4.05;;;8.50;58.30;;;;;;2066010;28;20038;-59
2021/03/05 01:28:20;;;;;;;12.32;4.50;;;8.40;58.20;;;;;;2070091;28;20419;-59
2021/03/05 01:29:41;;;;;;;9.35;3.78;;;8.50;58.30;;;;;;2070831;28;20419;-60
2021/03/05 01:31:03;;;;;;;12.13;3.80;;;8.50;58.30;;;;;;2072856;28;20061;-61
2021/03/05 01:32:24;;;;;;;7.28;3.90;;;8.50;58.30;;;;;;2072808;28;20151;-61
2021/03/05 01:33:45;;;;;;;8.88;3.53;;;8.50;58.30;;;;;;2071395;28;20030;-59
2021/03/05 01:35:25;;;;;;;9.32;3.45;;;8.50;58.30;;;;;;2063883;28;20037;-60
2021/03/05 01:36:46;;;;;;;12.05;4.55;;;8.50;58.40;;;;;;2066783;28;20030;-59
2021/03/05 01:38:07;;;;;;;11.07;3.95;;;8.50;58.30;;;;;;2073181;28;20038;-59
2021/03/05 01:39:28;;;;;;;7.57;3.78;;;8.50;58.30;;;;;;2070250;28;20124;-59
2021/03/05 01:40:49;;;;;;;9.00;4.13;;;8.50;58.40;;;;;;2068702;28;20034;-59
2021/03/05 01:42:10;;;;;;;10.38;4.07;;;8.50;58.40;;;;;;2058405;28;20027;-59
2021/03/05 01:43:38;;;;;;;11.10;3.75;;;8.50;58.40;;;;;;2069214;28;20112;-60
2021/03/05 01:44:59;;;;;;;9.68;3.60;;;8.50;58.40;;;;;;2072285;28;20142;-60
2021/03/05 01:46:21;;;;;;;10.82;3.72;;;8.40;58.30;;;;;;2072058;28;20038;-60
2021/03/05 01:47:46;;;;;;;9.73;4.25;;;8.50;58.40;;;;;;2069600;28;20030;-59
2021/03/05 01:49:07;;;;;;;9.43;4.20;;;8.50;58.50;;;;;;2065788;28;20093;-59
2021/03/05 01:50:33;;;;;;;9.18;4.22;;;8.40;58.40;;;;;;2072069;28;20465;-59
2021/03/05 01:51:54;;;;;;;10.02;4.07;;;8.50;58.50;;;;;;2071404;28;20038;-60
2021/03/05 01:53:16;;;;;;;8.60;4.30;;;8.40;58.50;;;;;;2067529;28;20069;-60
2021/03/05 01:54:37;;;;;;;7.65;4.00;;;8.40;58.60;;;;;;2071789;28;20045;-60
2021/03/05 01:55:59;;;;;;;9.85;4.00;;;8.40;58.60;;;;;;2070699;28;20034;-59
2021/03/05 01:57:20;;;;;;;10.95;4.30;;;8.40;58.80;;;;;;2063496;28;20026;-59
2021/03/05 01:58:40;;;;;;;11.57;4.55;;;8.40;58.90;;;;;;2066337;28;20431;-59
2021/03/05 02:00:02;;;;;;;10.80;5.10;;;8.40;58.90;;;;;;2071079;28;20042;-58
2021/03/05 02:01:25;;;;;;;13.45;5.28;;;8.40;59.00;;;;;;2073336;28;20065;-59
2021/03/05 02:02:47;;;;;;;8.80;4.43;;;8.40;59.00;;;;;;2072396;28;20404;-60
2021/03/05 02:04:10;;;;;;;11.00;4.68;;;8.40;59.00;;;;;;2071436;28;20030;-60
2021/03/05 02:05:31;;;;;;;14.23;5.20;;;8.40;59.10;;;;;;2068855;28;20444;-59
2021/03/05 02:06:52;;;;;;;10.02;4.57;;;8.40;59.10;;;;;;2071295;28;20114;-59
2021/03/05 02:08:13;;;;;;;10.32;4.38;;;8.40;59.10;;;;;;2066904;28;20037;-59
2021/03/05 02:09:35;;;;;;;10.95;4.25;;;8.40;59.20;;;;;;2072507;28;20030;-59
2021/03/05 02:10:56;;;;;;;10.90;4.40;;;8.40;59.30;;;;;;2066186;28;20444;-58
2021/03/05 02:12:17;;;;;;;9.32;4.45;;;8.40;59.30;;;;;;2065959;28;20335;-60
2021/03/05 02:13:38;;;;;;;11.70;4.50;;;8.40;59.30;;;;;;2070445;28;20519;-60
2021/03/05 02:14:59;;;;;;;8.98;4.22;;;8.40;59.30;;;;;;2065242;28;20076;-59
2021/03/05 02:16:26;;;;;;;12.10;5.15;;;8.40;59.30;;;;;;2067207;28;20058;-60
2021/03/05 02:18:21;;;;;;;12.88;4.75;;;8.40;59.40;;;;;;2072532;28;20111;-60
2021/03/05 02:20:10;;;;;;;9.70;4.47;;;8.40;59.50;;;;;;2071777;28;20123;-60
2021/03/05 02:22:09;;;;;;;8.68;4.55;;;8.40;59.40;;;;;;2069206;28;20034;-60
2021/03/05 02:24:08;;;;;;;11.18;5.05;;;8.40;59.40;;;;;;2068514;28;20037;-60
2021/03/05 02:25:57;;;;;;;13.30;4.20;;;8.50;59.40;;;;;;2068632;28;20487;-60
2021/03/05 02:27:42;;;;;;;12.90;4.85;;;8.50;59.40;;;;;;2058011;28;20122;-60
2021/03/05 02:29:27;;;;;;;8.68;4.35;;;8.40;59.20;;;;;;2070417;28;20742;-59
2021/03/05 02:30:56;;;;;;;9.32;4.93;;;8.50;59.30;;;;;;2070630;28;20097;-59
2021/03/05 02:32:35;;;;;;;9.80;5.85;;;8.50;59.30;;;;;;2066892;28;20030;-59
2021/03/05 02:34:06;;;;;;;10.88;5.65;;;8.40;59.40;;;;;;2070177;28;20037;-59
2021/03/05 02:35:30;;;;;;;10.40;5.45;;;8.40;59.40;;;;;;2068552;28;20126;-60
2021/03/05 02:37:03;;;;;;;12.10;5.45;;;8.40;59.40;;;;;;2072300;28;20025;-59
2021/03/05 02:38:27;;;;;;;15.02;6.32;;;8.40;59.60;;;;;;2068605;28;20048;-59
2021/03/05 02:39:58;;;;;;;10.27;5.47;;;8.40;59.50;;;;;;2069629;28;20035;-59
2021/03/05 02:41:20;;;;;;;9.45;5.32;;;8.40;59.60;;;;;;2069125;28;20030;-59
2021/03/05 02:42:50;;;;;;;12.63;5.82;;;8.40;59.60;;;;;;2072875;28;20471;-59
2021/03/05 02:44:30;;;;;;;9.73;5.68;;;8.40;59.60;;;;;;2067442;28;20045;-60
2021/03/05 02:46:05;;;;;;;15.27;6.65;;;8.40;59.80;;;;;;2066581;28;20030;-60
2021/03/05 02:47:28;;;;;;;10.88;6.35;;;8.40;59.70;;;;;;2065855;28;20072;-60
2021/03/05 02:48:49;;;;;;;12.35;6.47;;;8.50;59.70;;;;;;2071128;28;20061;-59
2021/03/05 02:50:14;;;;;;;12.25;6.43;;;8.50;59.80;;;;;;2064896;28;20129;-59
2021/03/05 02:51:36;;;;;;;13.82;6.75;;;8.40;59.80;;;;;;2065212;28;20468;-59
2021/03/05 02:53:01;;;;;;;10.93;6.45;;;8.40;59.80;;;;;;2070324;28;20167;-59
2021/03/05 02:54:25;;;;;;;11.57;7.03;;;8.40;59.90;;;;;;2065868;28;20049;-60
2021/03/05 02:55:53;;;;;;;14.13;7.40;;;8.50;60.00;;;;;;2072064;28;20068;-59
2021/03/05 02:57:16;;;;;;;9.90;6.18;;;8.40;60.00;;;;;;2072078;28;20026;-60
2021/03/05 02:58:41;;;;;;;9.65;6.38;;;8.50;60.10;;;;;;2069880;28;20419;-59
2021/03/05 03:00:05;;;;;;;16.90;7.93;;;8.50;60.20;;;;;;2072007;28;20080;-60
2021/03/05 03:01:26;;;;;;;13.00;7.38;;;8.50;60.10;;;;;;2065606;28;20056;-60
2021/03/05 03:02:48;;;;;;;10.40;7.25;;;8.60;60.10;;;;;;2069623;28;20018;-59
2021/03/05 03:04:09;;;;;;;15.75;8.75;;;8.50;60.10;;;;;;2066543;28;20023;-60
2021/03/05 03:05:31;;;;;;;11.77;7.35;;;8.50;60.10;;;;;;2065794;28;20041;-58
2021/03/05 03:06:53;;;;;;;13.52;7.30;;;8.50;60.30;;;;;;2071948;28;20025;-60
2021/03/05 03:08:13;;;;;;;13.55;7.85;;;8.50;60.40;;;;;;2066592;28;20026;-60
2021/03/05 03:09:36;;;;;;;11.60;7.53;;;8.50;60.40;;;;;;2071429;28;20029;-60
2021/03/05 03:10:57;;;;;;;15.85;8.57;;;8.50;60.40;;;;;;2069372;28;20076;-59
2021/03/05 03:12:21;;;;;;;15.82;8.35;;;8.50;60.40;;;;;;2067145;28;20050;-60
2021/03/05 03:13:42;;;;;;;11.82;7.55;;;8.50;60.50;;;;;;2071334;28;20037;-60
2021/03/05 03:15:07;;;;;;;12.82;7.30;;;8.50;60.60;;;;;;2071128;28;20066;-61
2021/03/05 03:16:29;;;;;;;13.52;7.90;;;8.60;60.60;;;;;;2064426;28;20034;-61
2021/03/05 03:17:52;;;;;;;18.38;8.63;;;8.50;60.60;;;;;;2063671;28;20121;-60
2021/03/05 03:19:15;;;;;;;11.05;8.07;;;8.50;60.60;;;;;;2065549;28;20034;-60
2021/03/05 03:20:37;;;;;;;13.80;8.65;;;8.60;60.60;;;;;;2067425;28;20475;-60
2021/03/05 03:21:59;;;;;;;12.88;8.77;;;8.50;60.50;;;;;;2064715;28;20076;-60
2021/03/05 03:23:20;;;;;;;17.63;9.32;;;8.50;60.50;;;;;;2067335;28;20030;-61
2021/03/05 03:24:41;;;;;;;14.00;9.32;;;8.50;60.40;;;;;;2070088;28;20080;-60
2021/03/05 03:26:03;;;;;;;15.32;8.43;;;8.60;60.40;;;;;;2071132;28;20182;-60
2021/03/05 03:27:23;;;;;;;14.77;9.50;;;8.50;60.40;;;;;;2072265;28;20064;-60
2021/03/05 03:28:44;;;;;;;10.55;8.07;;;8.50;60.40;;;;;;2069245;28;20030;-60
2021/03/05 03:30:14;;;;;;;11.18;8.98;;;8.50;60.30;;;;;;2072490;28;20764;-60
2021/03/05 03:31:38;;;;;;;14.10;10.02;;;8.50;60.20;;;;;;2068724;28;20026;-59
2021/03/05 03:32:59;;;;;;;17.50;10.15;;;8.60;60.10;;;;;;2072190;28;20030;-60
2021/03/05 03:34:21;;;;;;;13.38;9.48;;;8.50;59.90;;;;;;2068949;28;20112;-61
2021/03/05 03:35:42;;;;;;;14.98;10.20;;;8.50;59.80;;;;;;2073224;28;20353;-61
2021/03/05 03:37:03;;;;;;;14.63;10.50;;;8.50;59.70;;;;;;2072309;28;20038;-60
2021/03/05 03:38:24;;;;;;;13.48;9.20;;;8.50;59.70;;;;;;2071974;28;20025;-60
2021/03/05 03:39:46;;;;;;;14.18;8.95;;;8.50;59.60;;;;;;2072925;28;20079;-60
2021/03/05 03:41:07;;;;;;;12.82;9.82;;;8.40;59.50;;;;;;2064573;28;20097;-60
2021/03/05 03:42:28;;;;;;;14.38;10.75;;;8.40;59.50;;;;;;2067300;28;20053;-61
2021/03/05 03:43:49;;;;;;;12.07;9.75;;;8.40;59.40;;;;;;2068749;28;20477;-60
2021/03/05 03:45:12;;;;;;;13.20;9.88;;;8.40;59.40;;;;;;2065470;28;20031;-61
2021/03/05 03:46:36;;;;;;;13.00;9.48;;;8.40;59.40;;;;;;2070028;28;20610;-61
2021/03/05 03:47:59;;;;;;;13.18;9.88;;;8.40;59.40;;;;;;2069150;28;20041;-60
2021/03/05 03:49:26;;;;;;;12.20;9.93;;;8.40;59.50;;;;;;2065539;28;20037;-60
2021/03/05 03:50:53;;;;;;;12.55;10.02;;;8.40;59.40;;;;;;2064706;28;20061;-60
2021/03/05 03:52:39;;;;;;;12.00;9.70;;;8.30;59.40;;;;;;2066748;28;20062;-61
2021/03/05 03:54:01;;;;;;;12.90;9.95;;;8.30;59.40;;;;;;2072781;28;20030;-60
2021/03/05 03:55:23;;;;;;;13.55;9.27;;;8.30;59.40;;;;;;2067021;28;20130;-60
2021/03/05 03:56:46;;;;;;;12.00;9.35;;;8.30;59.50;;;;;;2069622;28;20026;-60
2021/03/05 03:58:08;;;;;;;12.32;9.77;;;8.30;59.60;;;;;;2073709;28;20045;-61
2021/03/05 03:59:31;;;;;;;10.50;8.90;;;8.30;59.60;;;;;;2074402;28;20025;-60
2021/03/05 04:00:59;;;;;;;13.98;9.75;;;8.30;59.50;;;;;;2067989;28;20061;-61
2021/03/05 04:02:26;;;;;;;11.10;9.18;;;8.30;59.40;;;;;;2064719;28;20106;-61
2021/03/05 04:03:51;;;;;;;13.45;9.73;;;8.30;59.40;;;;;;2065212;28;20038;-60
2021/03/05 04:05:18;;;;;;;10.90;8.75;;;8.30;59.40;;;;;;2072679;28;20049;-61
2021/03/05 04:06:40;;;;;;;10.82;9.00;;;8.30;59.30;;;;;;2066043;28;20018;-60
2021/03/05 04:08:01;;;;;;;13.52;8.73;;;8.30;59.20;;;;;;2065969;28;20045;-59
2021/03/05 04:09:22;;;;;;;9.85;8.40;;;8.30;59.20;;;;;;2066449;28;20030;-61
2021/03/05 04:10:44;;;;;;;10.77;8.65;;;8.30;59.20;;;;;;2066726;28;20022;-60
2021/03/05 04:12:06;;;;;;;10.77;8.98;;;8.30;59.10;;;;;;2072658;28;20045;-60
2021/03/05 04:13:27;;;;;;;11.13;8.65;;;8.30;59.10;;;;;;2074427;28;20364;-61
2021/03/05 04:14:48;;;;;;;10.50;8.40;;;8.30;59.00;;;;;;2070629;28;20026;-60
2021/03/05 04:16:10;;;;;;;10.77;8.82;;;8.30;58.90;;;;;;2066447;28;20377;-60
2021/03/05 04:17:31;;;;;;;8.15;6.68;;;8.30;59.00;;;;;;2072770;28;20129;-60
2021/03/05 04:18:52;;;;;;;9.05;7.32;;;8.20;58.90;;;;;;2073592;28;20061;-61
2021/03/05 04:20:15;;;;;;;8.35;7.28;;;8.30;58.80;;;;;;2071073;28;20033;-60
2021/03/05 04:21:37;;;;;;;10.27;8.65;;;8.20;58.70;;;;;;2069352;28;20019;-60
2021/03/05 04:22:58;;;;;;;10.40;8.30;;;8.20;58.60;;;;;;2066434;28;20066;-60
2021/03/05 04:24:20;;;;;;;8.15;7.15;;;8.30;58.50;;;;;;2068700;28;20385;-60
2021/03/05 04:25:40;;;;;;;10.07;8.15;;;8.30;58.60;;;;;;2071449;28;20026;-61
2021/03/05 04:27:09;;;;;;;12.02;7.93;;;8.20;58.50;;;;;;2073245;28;20034;-60
2021/03/05 04:28:30;;;;;;;9.20;7.55;;;8.30;58.40;;;;;;2074043;28;20168;-60
2021/03/05 04:29:51;;;;;;;8.85;7.55;;;8.30;58.40;;;;;;2067226;28;20037;-60
2021/03/05 04:31:12;;;;;;;9.07;7.63;;;8.20;58.30;;;;;;2068804;28;20087;-59
2021/03/05 04:32:33;;;;;;;8.63;7.30;;;8.20;58.20;;;;;;2073306;28;20049;-60
2021/03/05 04:33:54;;;;;;;9.52;8.05;;;8.30;58.30;;;;;;2073024;28;20089;-60
2021/03/05 04:35:15;;;;;;;8.93;7.28;;;8.20;58.20;;;;;;2068497;28;20141;-59
2021/03/05 04:36:35;;;;;;;8.30;6.85;;;8.20;58.10;;;;;;2069686;28;20369;-60
2021/03/05 04:37:56;;;;;;;9.75;8.00;;;8.20;58.10;;;;;;2072326;28;20040;-59
2021/03/05 04:39:17;;;;;;;9.18;7.03;;;8.20;58.00;;;;;;2072334;28;20053;-61
2021/03/05 04:40:38;;;;;;;8.85;7.13;;;8.20;57.90;;;;;;2061863;28;20026;-59
2021/03/05 04:41:59;;;;;;;7.50;6.32;;;8.20;57.80;;;;;;2069354;28;20411;-59
2021/03/05 04:43:20;;;;;;;7.60;6.70;;;8.20;57.70;;;;;;2067746;28;20035;-59
2021/03/05 04:44:41;;;;;;;6.53;5.80;;;8.20;57.60;;;;;;2068875;28;20040;-59
2021/03/05 04:46:02;;;;;;;6.78;5.57;;;8.10;57.50;;;;;;2072889;28;20420;-59
2021/03/05 04:47:23;;;;;;;6.90;5.72;;;8.10;57.40;;;;;;2070475;28;20119;-59
2021/03/05 04:48:45;;;;;;;6.25;5.63;;;8.10;57.50;;;;;;2072960;28;20053;-59
2021/03/05 04:50:06;;;;;;;6.65;5.50;;;8.10;57.40;;;;;;2072572;28;20064;-59
2021/03/05 04:51:27;;;;;;;7.10;5.95;;;8.10;57.40;;;;;;2067302;28;20048;-59
2021/03/05 04:52:48;;;;;;;6.07;5.20;;;8.10;57.30;;;;;;2066280;28;20035;-59
2021/03/05 04:54:09;;;;;;;9.80;5.90;;;8.10;57.20;;;;;;2071552;28;20087;-59
2021/03/05 04:55:30;;;;;;;5.35;4.72;;;8.10;57.30;;;;;;2067519;28;20054;-59
2021/03/05 04:56:51;;;;;;;7.88;5.10;;;8.00;57.30;;;;;;2067444;28;20073;-59
2021/03/05 04:58:12;;;;;;;5.13;4.63;;;8.00;57.10;;;;;;2068130;28;20413;-61
2021/03/05 04:59:33;;;;;;;5.10;4.60;;;8.00;57.10;;;;;;2070213;28;20033;-60
2021/03/05 05:00:54;;;;;;;6.72;5.07;;;8.00;57.10;;;;;;2065736;28;20391;-61
2021/03/05 05:02:15;;;;;;;4.95;4.45;;;7.90;56.90;;;;;;2072524;28;20065;-60
2021/03/05 05:03:36;;;;;;;6.45;4.70;;;8.00;57.00;;;;;;2071112;28;20060;-60
2021/03/05 05:04:56;;;;;;;7.95;5.00;;;7.90;56.80;;;;;;2072283;28;20364;-60
2021/03/05 05:06:17;;;;;;;7.28;5.03;;;7.90;56.70;;;;;;2070088;28;20650;-60
2021/03/05 05:07:38;;;;;;;5.70;4.30;;;7.90;56.70;;;;;;2073428;28;20095;-60
2021/03/05 05:08:59;;;;;;;5.63;4.43;;;7.90;56.60;;;;;;2064929;28;20038;-60
2021/03/05 05:10:20;;;;;;;4.40;4.00;;;7.90;56.60;;;;;;2065548;28;20034;-60
2021/03/05 05:11:41;;;;;;;5.72;4.63;;;7.80;56.40;;;;;;2071292;28;20076;-61
2021/03/05 05:13:02;;;;;;;6.35;5.05;;;7.80;56.30;;;;;;2072935;28;20038;-60
2021/03/05 05:14:23;;;;;;;6.50;4.30;;;7.80;56.30;;;;;;2070329;28;20364;-60
2021/03/05 05:15:44;;;;;;;4.82;4.25;;;7.80;56.30;;;;;;2068032;28;20062;-60
2021/03/05 05:17:05;;;;;;;5.13;3.88;;;7.70;56.10;;;;;;2073107;28;20676;-60
2021/03/05 05:18:26;;;;;;;5.15;4.28;;;7.70;56.00;;;;;;2073114;28;20030;-61
2021/03/05 05:19:47;;;;;;;4.50;4.10;;;7.70;56.00;;;;;;2072512;28;20056;-61
2021/03/05 05:21:08;;;;;;;4.90;4.38;;;7.70;56.00;;;;;;2057816;28;20046;-60
2021/03/05 05:22:31;;;;;;;4.88;4.38;;;7.60;56.00;;;;;;2064269;28;20376;-61
2021/03/05 05:23:52;;;;;;;6.28;4.47;;;7.60;55.90;;;;;;2072026;28;20475;-60
2021/03/05 05:25:13;;;;;;;4.72;3.97;;;7.60;55.90;;;;;;2066502;28;20161;-60
2021/03/05 05:26:34;;;;;;;4.93;4.30;;;7.50;55.80;;;;;;2069081;28;20030;-61
2021/03/05 05:27:55;;;;;;;5.13;4.55;;;7.50;55.80;;;;;;2072603;28;20034;-60
2021/03/05 05:29:16;;;;;;;5.35;4.30;;;7.50;55.70;;;;;;2071841;28;20061;-60
2021/03/05 05:30:37;;;;;;;5.00;4.13;;;7.50;55.70;;;;;;2072697;28;20089;-60
2021/03/05 05:31:58;;;;;;;5.10;3.95;;;7.40;55.60;;;;;;2067484;28;20634;-59
2021/03/05 05:33:18;;;;;;;5.35;4.10;;;7.40;55.60;;;;;;2067341;28;20035;-60
2021/03/05 05:34:39;;;;;;;4.53;4.13;;;7.30;55.60;;;;;;2064367;28;20030;-61
2021/03/05 05:36:00;;;;;;;4.65;4.15;;;7.30;55.60;;;;;;2071328;28;20464;-61
2021/03/05 05:37:21;;;;;;;4.90;4.47;;;7.30;55.70;;;;;;2067235;28;20523;-60
2021/03/05 05:38:42;;;;;;;5.10;4.60;;;7.20;55.60;;;;;;2072623;28;20045;-60
2021/03/05 05:40:04;;;;;;;4.85;4.32;;;7.20;55.70;;;;;;2071473;28;20116;-60
2021/03/05 05:41:25;;;;;;;5.40;4.82;;;7.20;55.70;;;;;;2073456;28;20121;-61
2021/03/05 05:42:49;;;;;;;5.00;4.40;;;7.10;55.70;;;;;;2070639;28;20038;-60
2021/03/05 05:44:10;;;;;;;5.07;4.35;;;7.10;55.60;;;;;;2059038;28;20018;-60
2021/03/05 05:45:31;;;;;;;5.38;4.88;;;7.10;55.70;;;;;;2070298;28;20038;-61
2021/03/05 05:46:52;;;;;;;5.22;4.43;;;7.10;55.70;;;;;;2066343;28;20037;-61
2021/03/05 05:48:13;;;;;;;6.10;4.68;;;7.00;55.70;;;;;;2067063;28;20689;-60
2021/03/05 05:49:36;;;;;;;5.20;4.50;;;7.00;55.80;;;;;;2070230;28;20054;-60
2021/03/05 05:50:58;;;;;;;5.03;4.53;;;7.00;55.80;;;;;;2066907;28;20038;-60
2021/03/05 05:52:21;;;;;;;5.15;4.72;;;7.00;55.80;;;;;;2065942;28;20069;-60
2021/03/05 05:53:45;;;;;;;4.85;4.38;;;6.90;55.90;;;;;;2073560;28;20041;-60
2021/03/05 05:55:07;;;;;;;6.05;4.78;;;6.90;56.00;;;;;;2073076;28;20491;-60
2021/03/05 05:56:28;;;;;;;5.28;4.65;;;6.80;55.90;;;;;;2072643;28;20452;-60
2021/03/05 05:57:49;;;;;;;5.53;4.32;;;6.80;55.90;;;;;;2072418;28;20045;-60
2021/03/05 05:59:10;;;;;;;5.90;4.15;;;6.80;55.90;;;;;;2067749;28;20116;-60
2021/03/05 06:00:30;;;;;;;4.55;4.13;;;6.80;56.00;;;;;;2069852;28;20764;-60
2021/03/05 06:01:53;;;;;;;4.82;4.38;;;6.70;56.00;;;;;;2068604;28;20038;-61
2021/03/05 06:03:15;;;;;;;6.20;5.25;;;6.70;56.00;;;;;;2072426;28;20022;-60
2021/03/05 06:04:36;;;;;;;5.32;4.82;;;6.70;56.00;;;;;;2071690;28;20030;-60
2021/03/05 06:05:57;;;;;;;5.90;4.40;;;6.70;56.00;;;;;;2074420;28;20037;-60
2021/03/05 06:07:18;;;;;;;5.45;4.95;;;6.60;56.00;;;;;;2071272;28;20060;-60
2021/03/05 06:08:39;;;;;;;5.30;4.82;;;6.60;56.10;;;;;;2069992;28;20033;-60
2021/03/05 06:10:00;;;;;;;4.88;4.38;;;6.60;56.10;;;;;;2071553;28;20034;-60
2021/03/05 06:11:21;;;;;;;5.57;4.93;;;6.60;56.20;;;;;;2070792;28;20030;-60
2021/03/05 06:12:42;;;;;;;5.15;4.20;;;6.60;56.20;;;;;;2065436;28;20128;-60
2021/03/05 06:14:04;;;;;;;4.97;4.57;;;6.50;56.10;;;;;;2069724;28;20564;-60
2021/03/05 06:15:28;;;;;;;6.82;4.30;;;6.50;56.00;;;;;;2068114;28;20076;-60
2021/03/05 06:16:59;;;;;;;6.22;4.38;;;6.50;56.10;;;;;;2071776;28;20029;-60
2021/03/05 06:18:29;;;;;;;4.72;4.30;;;6.50;56.10;;;;;;2066733;28;20046;-60
2021/03/05 06:19:57;;;;;;;4.80;4.13;;;6.50;56.00;;;;;;2067234;28;20030;-59
2021/03/05 06:21:35;;;;;;;5.05;4.45;;;6.50;56.00;;;;;;2067093;28;20043;-60
2021/03/05 06:23:12;;;;;;;4.63;3.92;;;6.40;56.00;;;;;;2071864;28;20025;-61
2021/03/05 06:24:43;;;;;;;6.05;4.28;;;6.40;55.90;;;;;;2072678;28;20026;-60
2021/03/05 06:26:04;;;;;;;6.18;4.47;;;6.40;55.90;;;;;;2064149;28;20038;-60
2021/03/05 06:27:29;;;;;;;5.57;4.28;;;6.40;55.90;;;;;;2067346;28;20360;-60
2021/03/05 06:29:06;;;;;;;4.63;4.20;;;6.40;55.90;;;;;;2067381;28;20457;-59
2021/03/05 06:30:30;;;;;;;4.55;4.15;;;6.30;55.90;;;;;;2068947;28;20030;-60
2021/03/05 06:31:54;;;;;;;5.85;4.05;;;6.40;56.00;;;;;;2067338;28;20038;-60
2021/03/05 06:33:41;;;;;;;5.03;4.40;;;6.30;55.90;;;;;;2071094;28;20026;-61
2021/03/05 06:35:03;;;;;;;4.05;3.75;;;6.30;56.00;;;;;;2069659;28;20673;-59
2021/03/05 06:36:24;;;;;;;4.95;4.00;;;6.30;56.00;;;;;;2068242;28;20034;-60
2021/03/05 06:37:47;;;;;;;4.50;3.83;;;6.30;55.90;;;;;;2071728;28;20026;-60
2021/03/05 06:39:08;;;;;;;4.25;3.85;;;6.30;56.00;;;;;;2069356;28;20038;-60
2021/03/05 06:40:30;;;;;;;5.85;4.28;;;6.30;56.00;;;;;;2073119;28;20502;-60
2021/03/05 06:42:06;;;;;;;4.75;4.22;;;6.20;55.90;;;;;;2071969;28;20037;-59
2021/03/05 06:43:46;;;;;;;5.13;3.92;;;6.20;55.90;;;;;;2070630;28;20032;-59
2021/03/05 06:45:11;;;;;;;5.00;3.75;;;6.20;55.80;;;;;;2071569;28;20061;-60
2021/03/05 06:46:38;;;;;;;4.60;3.67;;;6.20;55.80;;;;;;2071751;28;20026;-60
2021/03/05 06:48:01;;;;;;;5.63;3.90;;;6.20;55.80;;;;;;2070415;28;20026;-60
2021/03/05 06:49:22;;;;;;;3.85;3.35;;;6.20;55.80;;;;;;2067603;28;20026;-59
2021/03/05 06:50:44;;;;;;;3.60;3.28;;;6.20;55.80;;;;;;2069269;28;20026;-60
2021/03/05 06:52:05;;;;;;;5.68;3.85;;;6.20;55.80;;;;;;2065510;28;20532;-60
2021/03/05 06:53:26;;;;;;;3.25;2.97;;;6.10;55.70;;;;;;2066074;28;20349;-60
2021/03/05 06:54:49;;;;;;;4.18;3.10;;;6.20;55.80;;;;;;2072612;28;20041;-59
2021/03/05 06:56:30;;;;;;;4.00;3.22;;;6.10;55.70;;;;;;2071587;28;20045;-60
2021/03/05 06:57:54;;;;;;;3.88;3.13;;;6.10;55.80;;;;;;2072879;28;20108;-59
2021/03/05 06:59:17;;;;;;;4.82;3.67;;;6.10;55.90;;;;;;2067323;28;20053;-60
2021/03/05 07:00:38;;;;;;;7.18;3.75;;;6.10;55.80;;;;;;2072206;28;20048;-59
2021/03/05 07:02:00;;;;;;;7.57;3.40;;;6.10;55.80;;;;;;2072053;28;20029;-60
2021/03/05 07:03:22;;;;;;;4.22;3.13;;;6.10;55.80;;;;;;2072225;28;20060;-60
2021/03/05 07:04:51;;;;;;;3.72;3.13;;;6.10;55.90;;;;;;2066573;28;20600;-60
2021/03/05 07:06:17;;;;;;;3.03;2.72;;;6.10;55.80;;;;;;2067502;28;20075;-59
2021/03/05 07:07:48;;;;;;;3.30;3.00;;;6.10;55.70;;;;;;2068552;28;20412;-60
2021/03/05 07:09:36;;;;;;;4.93;2.80;;;6.10;55.60;;;;;;2071247;28;20085;-60
2021/03/05 07:10:57;;;;;;;3.75;3.38;;;6.10;55.60;;;;;;2071712;28;20049;-60
2021/03/05 07:12:21;;;;;;;3.47;3.15;;;6.10;56.20;;;;;;2071454;28;20136;-60
2021/03/05 07:13:52;;;;;;;3.80;2.85;;;6.10;55.60;;;;;;2071518;28;20081;-60
2021/03/05 07:15:13;;;;;;;4.05;2.85;;;6.10;55.70;;;;;;2066365;28;20380;-60
2021/03/05 07:17:01;;;;;;;6.35;3.03;;;6.10;55.70;;;;;;2072220;28;20527;-60
2021/03/05 07:18:21;;;;;;;3.00;2.55;;;6.10;55.60;;;;;;2069780;28;20061;-59
2021/03/05 07:19:42;;;;;;;3.85;2.75;;;6.10;55.70;;;;;;2069668;28;20060;-60
2021/03/05 07:21:04;;;;;;;3.67;2.88;;;6.10;55.70;;;;;;2070958;28;20045;-60